createdAt,value
2017-04-08T00:00:17.078Z,22.38
2017-04-08T00:00:36.390Z,22.44
2017-04-08T00:00:55.677Z,22.35
2017-04-08T00:01:14.978Z,22.32
2017-04-08T00:01:34.277Z,22.38
2017-04-08T00:01:53.560Z,22.41
2017-04-08T00:02:12.300Z,22.41
2017-04-08T00:02:31.564Z,22.38
2017-04-08T00:02:50.865Z,22.42
2017-04-08T00:03:10.140Z,22.38
2017-04-08T00:03:29.444Z,22.32
2017-04-08T00:03:48.234Z,22.38
2017-04-08T00:04:07.543Z,22.38
2017-04-08T00:04:26.868Z,22.47
2017-04-08T00:04:46.186Z,22.46
2017-04-08T00:05:05.508Z,22.5
2017-04-08T00:05:24.848Z,22.42
2017-04-08T00:05:43.637Z,22.52
2017-04-08T00:06:02.930Z,22.38
2017-04-08T00:06:22.329Z,22.41
2017-04-08T00:06:41.635Z,22.41
2017-04-08T00:07:00.930Z,22.3
2017-04-08T00:07:20.238Z,22.41
2017-04-08T00:07:39.517Z,22.31
2017-04-08T00:07:58.769Z,22.34
2017-04-08T00:08:18.098Z,22.34
2017-04-08T00:08:37.403Z,22.31
2017-04-08T00:08:56.695Z,22.37
2017-04-08T00:09:15.990Z,22.37
2017-04-08T00:09:35.284Z,22.41
2017-04-08T00:09:54.030Z,22.35
2017-04-08T00:10:13.310Z,22.32
2017-04-08T00:10:32.591Z,22.35
2017-04-08T00:10:51.897Z,22.37
2017-04-08T00:11:11.188Z,22.37
2017-04-08T00:11:30.460Z,22.39
2017-04-08T00:11:49.743Z,22.31
2017-04-08T00:12:08.495Z,22.35
2017-04-08T00:12:27.782Z,22.37
2017-04-08T00:12:47.055Z,22.32
2017-04-08T00:13:06.337Z,22.35
2017-04-08T00:13:25.595Z,22.46
2017-04-08T00:13:44.371Z,22.44
2017-04-08T00:14:03.671Z,22.5
2017-04-08T00:14:22.985Z,22.34
2017-04-08T00:14:41.771Z,22.34
2017-04-08T00:15:01.062Z,22.34
2017-04-08T00:15:20.348Z,22.32
2017-04-08T00:15:39.617Z,22.32
2017-04-08T00:15:58.894Z,22.34
2017-04-08T00:16:18.434Z,22.38
2017-04-08T00:16:37.748Z,22.37
2017-04-08T00:16:57.030Z,22.34
2017-04-08T00:17:16.338Z,22.35
2017-04-08T00:17:35.628Z,22.34
2017-04-08T00:17:54.931Z,22.37
2017-04-08T00:18:14.207Z,22.3
2017-04-08T00:18:33.514Z,22.39
2017-04-08T00:18:52.777Z,22.24
2017-04-08T00:19:12.023Z,22.24
2017-04-08T00:19:31.301Z,22.23
2017-04-08T00:19:50.600Z,22.37
2017-04-08T00:20:09.953Z,22.24
2017-04-08T00:20:29.248Z,22.26
2017-04-08T00:20:48.565Z,22.19
2017-04-08T00:21:07.855Z,22.26
2017-04-08T00:21:27.160Z,22.22
2017-04-08T00:21:45.909Z,22.23
2017-04-08T00:22:05.175Z,22.23
2017-04-08T00:22:24.459Z,22.16
2017-04-08T00:22:43.771Z,22.32
2017-04-08T00:23:03.063Z,22.23
2017-04-08T00:23:21.837Z,22.37
2017-04-08T00:23:41.143Z,22.28
2017-04-08T00:24:00.398Z,22.31
2017-04-08T00:24:19.701Z,22.22
2017-04-08T00:24:38.500Z,22.32
2017-04-08T00:24:57.792Z,22.28
2017-04-08T00:25:17.068Z,22.28
2017-04-08T00:25:36.335Z,22.28
2017-04-08T00:25:55.635Z,22.32
2017-04-08T00:26:14.916Z,22.24
2017-04-08T00:26:34.230Z,22.28
2017-04-08T00:26:53.535Z,22.3
2017-04-08T00:27:12.833Z,22.32
2017-04-08T00:27:32.110Z,22.26
2017-04-08T00:27:51.401Z,22.28
2017-04-08T00:28:10.673Z,22.28
2017-04-08T00:28:29.959Z,22.32
2017-04-08T00:28:49.268Z,22.28
2017-04-08T00:29:08.556Z,22.3
2017-04-08T00:29:27.317Z,22.3
2017-04-08T00:29:46.104Z,22.32
2017-04-08T00:30:05.390Z,22.34
2017-04-08T00:30:24.698Z,22.39
2017-04-08T00:30:43.953Z,22.37
2017-04-08T00:31:03.338Z,22.35
2017-04-08T00:31:22.701Z,22.37
2017-04-08T00:31:41.970Z,22.24
2017-04-08T00:32:01.319Z,22.31
2017-04-08T00:32:20.599Z,22.26
2017-04-08T00:32:39.920Z,22.34
2017-04-08T00:32:58.718Z,22.31
2017-04-08T00:33:31.992Z,22.34
2017-04-08T00:33:51.279Z,22.35
2017-04-08T00:34:10.107Z,22.32
2017-04-08T00:34:29.433Z,22.37
2017-04-08T00:34:48.698Z,22.24
2017-04-08T00:35:07.953Z,22.23
2017-04-08T00:35:27.559Z,22.37
2017-04-08T00:35:46.825Z,22.38
2017-04-08T00:36:06.149Z,22.26
2017-04-08T00:36:25.626Z,22.35
2017-04-08T00:36:44.898Z,22.38
2017-04-08T00:37:04.184Z,22.35
2017-04-08T00:37:23.044Z,22.35
2017-04-08T00:37:42.439Z,22.35
2017-04-08T00:38:01.845Z,22.32
2017-04-08T00:38:21.166Z,22.34
2017-04-08T00:38:40.454Z,22.34
2017-04-08T00:38:59.742Z,22.35
2017-04-08T00:39:19.042Z,22.39
2017-04-08T00:39:38.300Z,22.37
2017-04-08T00:39:57.601Z,22.34
2017-04-08T00:40:20.650Z,22.32
2017-04-08T00:40:39.975Z,22.46
2017-04-08T00:40:59.258Z,22.35
2017-04-08T00:41:18.840Z,22.49
2017-04-08T00:41:38.274Z,22.42
2017-04-08T00:41:57.570Z,22.34
2017-04-08T00:42:16.353Z,22.39
2017-04-08T00:42:35.643Z,22.26
2017-04-08T00:42:54.385Z,22.23
2017-04-08T00:43:13.747Z,22.23
2017-04-08T00:43:33.331Z,22.34
2017-04-08T00:43:52.848Z,22.34
2017-04-08T00:44:12.116Z,22.39
2017-04-08T00:44:31.437Z,22.38
2017-04-08T00:44:50.745Z,22.38
2017-04-08T00:45:10.051Z,22.34
2017-04-08T00:45:29.428Z,22.37
2017-04-08T00:45:48.883Z,22.37
2017-04-08T00:46:08.170Z,22.34
2017-04-08T00:46:27.581Z,22.38
2017-04-08T00:46:47.039Z,22.44
2017-04-08T00:47:06.394Z,22.38
2017-04-08T00:47:25.762Z,22.41
2017-04-08T00:47:45.063Z,22.46
2017-04-08T00:48:04.481Z,22.46
2017-04-08T00:48:23.354Z,22.46
2017-04-08T00:48:42.657Z,22.47
2017-04-08T00:49:01.960Z,22.44
2017-04-08T00:49:21.262Z,22.35
2017-04-08T00:49:40.563Z,22.47
2017-04-08T00:49:59.850Z,22.38
2017-04-08T00:50:19.122Z,22.42
2017-04-08T00:50:38.393Z,22.34
2017-04-08T00:50:57.677Z,22.42
2017-04-08T00:51:16.500Z,22.49
2017-04-08T00:51:35.841Z,22.39
2017-04-08T00:51:55.148Z,22.38
2017-04-08T00:52:14.035Z,22.39
2017-04-08T00:52:33.388Z,22.38
2017-04-08T00:52:52.678Z,22.44
2017-04-08T00:53:11.984Z,22.5
2017-04-08T00:53:31.323Z,22.46
2017-04-08T00:53:50.659Z,22.42
2017-04-08T00:54:09.948Z,22.42
2017-04-08T00:54:29.280Z,22.46
2017-04-08T00:54:48.550Z,22.42
2017-04-08T00:55:07.897Z,22.42
2017-04-08T00:55:27.191Z,22.41
2017-04-08T00:55:45.994Z,22.49
2017-04-08T00:56:04.854Z,22.59
2017-04-08T00:56:24.235Z,22.49
2017-04-08T00:56:43.536Z,22.56
2017-04-08T00:57:02.320Z,22.47
2017-04-08T00:57:21.632Z,22.44
2017-04-08T00:57:40.897Z,22.42
2017-04-08T00:58:00.200Z,22.46
2017-04-08T00:58:19.510Z,22.47
2017-04-08T00:58:38.798Z,22.44
2017-04-08T00:58:57.110Z,22.42
2017-04-08T00:59:16.451Z,22.47
2017-04-08T00:59:35.706Z,22.42
2017-04-08T00:59:54.971Z,22.42
2017-04-08T01:00:14.287Z,22.38
2017-04-08T01:00:33.593Z,22.42
2017-04-08T01:00:53.296Z,22.44
2017-04-08T01:01:12.585Z,22.57
2017-04-08T01:01:31.892Z,22.54
2017-04-08T01:01:51.181Z,22.52
2017-04-08T01:02:09.942Z,22.46
2017-04-08T01:02:28.203Z,22.41
2017-04-08T01:02:46.986Z,22.46
2017-04-08T01:03:06.292Z,22.53
2017-04-08T01:03:25.609Z,22.42
2017-04-08T01:03:44.883Z,22.42
2017-04-08T01:04:04.176Z,22.38
2017-04-08T01:04:23.450Z,22.42
2017-04-08T01:04:42.768Z,22.44
2017-04-08T01:05:02.048Z,22.52
2017-04-08T01:05:20.798Z,22.46
2017-04-08T01:05:39.552Z,22.46
2017-04-08T01:05:58.843Z,22.44
2017-04-08T01:06:18.335Z,22.49
2017-04-08T01:06:37.625Z,22.41
2017-04-08T01:06:56.929Z,22.35
2017-04-08T01:07:16.224Z,22.42
2017-04-08T01:07:35.529Z,22.34
2017-04-08T01:07:54.846Z,22.37
2017-04-08T01:08:14.155Z,22.42
2017-04-08T01:08:32.932Z,22.44
2017-04-08T01:08:52.227Z,22.5
2017-04-08T01:09:11.514Z,22.46
2017-04-08T01:09:30.298Z,22.42
2017-04-08T01:09:49.560Z,22.42
2017-04-08T01:10:08.857Z,22.41
2017-04-08T01:10:28.147Z,22.47
2017-04-08T01:10:46.941Z,22.56
2017-04-08T01:11:06.245Z,22.62
2017-04-08T01:11:25.562Z,22.59
2017-04-08T01:11:44.890Z,22.52
2017-04-08T01:12:04.156Z,22.42
2017-04-08T01:12:23.475Z,22.54
2017-04-08T01:12:42.748Z,22.62
2017-04-08T01:13:02.032Z,22.52
2017-04-08T01:13:21.319Z,22.54
2017-04-08T01:13:40.583Z,22.56
2017-04-08T01:13:59.884Z,22.52
2017-04-08T01:14:19.161Z,22.59
2017-04-08T01:14:37.919Z,22.52
2017-04-08T01:14:57.204Z,22.54
2017-04-08T01:15:16.002Z,22.56
2017-04-08T01:15:35.298Z,22.54
2017-04-08T01:15:54.554Z,22.62
2017-04-08T01:16:13.817Z,22.49
2017-04-08T01:16:33.114Z,22.44
2017-04-08T01:16:51.876Z,22.47
2017-04-08T01:17:11.158Z,22.44
2017-04-08T01:17:30.470Z,22.44
2017-04-08T01:17:49.781Z,22.35
2017-04-08T01:18:08.534Z,22.35
2017-04-08T01:18:27.857Z,22.31
2017-04-08T01:18:47.159Z,22.38
2017-04-08T01:19:06.486Z,22.39
2017-04-08T01:19:25.812Z,22.34
2017-04-08T01:19:44.582Z,22.41
2017-04-08T01:20:03.833Z,22.35
2017-04-08T01:20:23.109Z,22.35
2017-04-08T01:20:42.428Z,22.34
2017-04-08T01:21:01.743Z,22.34
2017-04-08T01:21:21.351Z,22.38
2017-04-08T01:21:40.725Z,22.37
2017-04-08T01:22:00.024Z,22.39
2017-04-08T01:22:19.319Z,22.38
2017-04-08T01:22:38.618Z,22.28
2017-04-08T01:22:57.940Z,22.34
2017-04-08T01:23:17.296Z,22.31
2017-04-08T01:23:36.586Z,22.35
2017-04-08T01:23:55.880Z,22.3
2017-04-08T01:24:15.198Z,22.32
2017-04-08T01:24:34.515Z,22.28
2017-04-08T01:24:53.866Z,22.3
2017-04-08T01:25:13.208Z,22.3
2017-04-08T01:25:32.533Z,22.26
2017-04-08T01:25:51.932Z,22.35
2017-04-08T01:26:10.712Z,22.37
2017-04-08T01:26:30.212Z,22.34
2017-04-08T01:26:49.683Z,22.32
2017-04-08T01:27:09.070Z,22.39
2017-04-08T01:27:28.453Z,22.37
2017-04-08T01:27:47.198Z,22.37
2017-04-08T01:28:06.488Z,22.32
2017-04-08T01:28:25.767Z,22.31
2017-04-08T01:28:45.087Z,22.32
2017-04-08T01:29:04.366Z,22.31
2017-04-08T01:29:23.651Z,22.34
2017-04-08T01:29:43.037Z,22.41
2017-04-08T01:30:02.329Z,22.32
2017-04-08T01:30:21.641Z,22.37
2017-04-08T01:30:40.966Z,22.31
2017-04-08T01:31:00.234Z,22.39
2017-04-08T01:31:18.985Z,22.32
2017-04-08T01:31:38.277Z,22.37
2017-04-08T01:31:57.054Z,22.34
2017-04-08T01:32:16.378Z,22.28
2017-04-08T01:32:35.673Z,22.34
2017-04-08T01:32:54.444Z,22.39
2017-04-08T01:33:13.238Z,22.37
2017-04-08T01:33:32.515Z,22.3
2017-04-08T01:33:51.802Z,22.22
2017-04-08T01:34:11.102Z,22.23
2017-04-08T01:34:30.414Z,22.37
2017-04-08T01:34:49.720Z,22.24
2017-04-08T01:35:08.990Z,22.24
2017-04-08T01:35:28.342Z,22.16
2017-04-08T01:35:47.622Z,22.19
2017-04-08T01:36:06.942Z,22.16
2017-04-08T01:36:26.007Z,22.19
2017-04-08T01:36:45.413Z,22.15
2017-04-08T01:37:04.700Z,22.16
2017-04-08T01:37:24.142Z,22.12
2017-04-08T01:37:43.488Z,22.19
2017-04-08T01:38:02.244Z,22.2
2017-04-08T01:38:21.533Z,22.13
2017-04-08T01:38:40.789Z,22.17
2017-04-08T01:39:00.075Z,22.19
2017-04-08T01:39:18.809Z,22.1
2017-04-08T01:39:38.094Z,22.19
2017-04-08T01:39:57.417Z,22.19
2017-04-08T01:40:16.735Z,22.17
2017-04-08T01:40:36.443Z,22.19
2017-04-08T01:40:55.766Z,22.15
2017-04-08T01:41:14.624Z,22.17
2017-04-08T01:41:32.888Z,22.19
2017-04-08T01:41:52.240Z,22.15
2017-04-08T01:42:11.658Z,22.19
2017-04-08T01:42:30.964Z,22.15
2017-04-08T01:42:50.258Z,22.15
2017-04-08T01:43:09.566Z,22.16
2017-04-08T01:43:28.869Z,22.22
2017-04-08T01:43:48.200Z,22.16
2017-04-08T01:44:07.459Z,22.2
2017-04-08T01:44:27.020Z,22.23
2017-04-08T01:44:46.231Z,22.2
2017-04-08T01:45:05.087Z,22.15
2017-04-08T01:45:24.366Z,22.24
2017-04-08T01:45:43.664Z,22.17
2017-04-08T01:46:03.012Z,22.23
2017-04-08T01:46:22.313Z,22.24
2017-04-08T01:46:41.128Z,22.24
2017-04-08T01:47:00.511Z,22.15
2017-04-08T01:47:19.326Z,22.2
2017-04-08T01:47:38.650Z,22.19
2017-04-08T01:47:57.973Z,22.17
2017-04-08T01:48:17.283Z,22.17
2017-04-08T01:48:36.580Z,22.12
2017-04-08T01:48:55.491Z,22.2
2017-04-08T01:49:14.797Z,22.3
2017-04-08T01:49:34.064Z,22.2
2017-04-08T01:49:53.469Z,22.23
2017-04-08T01:50:12.751Z,22.19
2017-04-08T01:50:32.518Z,22.15
2017-04-08T01:50:51.868Z,22.16
2017-04-08T01:51:11.243Z,22.23
2017-04-08T01:51:30.019Z,22.26
2017-04-08T01:51:49.350Z,22.16
2017-04-08T01:52:08.633Z,22.26
2017-04-08T01:52:27.472Z,22.2
2017-04-08T01:52:46.766Z,22.17
2017-04-08T01:53:06.076Z,22.19
2017-04-08T01:53:25.570Z,22.17
2017-04-08T01:53:44.951Z,22.3
2017-04-08T01:54:04.243Z,22.32
2017-04-08T01:54:24.094Z,22.26
2017-04-08T01:54:43.492Z,22.19
2017-04-08T01:55:02.798Z,22.22
2017-04-08T01:55:21.562Z,22.24
2017-04-08T01:55:40.862Z,22.17
2017-04-08T01:56:00.163Z,22.16
2017-04-08T01:56:19.485Z,22.19
2017-04-08T01:56:38.825Z,22.17
2017-04-08T01:56:58.379Z,22.16
2017-04-08T01:57:17.673Z,22.24
2017-04-08T01:57:36.959Z,22.28
2017-04-08T01:57:56.236Z,22.24
2017-04-08T01:58:15.037Z,22.3
2017-04-08T01:58:34.338Z,22.26
2017-04-08T01:58:53.643Z,22.23
2017-04-08T01:59:12.937Z,22.23
2017-04-08T01:59:32.236Z,22.22
2017-04-08T01:59:51.479Z,22.19
2017-04-08T02:00:10.759Z,22.19
2017-04-08T02:00:30.051Z,22.24
2017-04-08T02:00:48.827Z,22.23
2017-04-08T02:01:08.123Z,22.24
2017-04-08T02:01:27.389Z,22.24
2017-04-08T02:01:46.681Z,22.19
2017-04-08T02:02:05.981Z,22.2
2017-04-08T02:02:25.234Z,22.3
2017-04-08T02:02:44.536Z,22.23
2017-04-08T02:03:03.833Z,22.3
2017-04-08T02:03:23.116Z,22.24
2017-04-08T02:03:42.401Z,22.2
2017-04-08T02:04:01.686Z,22.2
2017-04-08T02:04:20.493Z,22.16
2017-04-08T02:04:39.784Z,22.19
2017-04-08T02:04:59.091Z,22.3
2017-04-08T02:05:18.393Z,22.23
2017-04-08T02:05:37.709Z,22.24
2017-04-08T02:05:56.975Z,22.24
2017-04-08T02:06:15.755Z,22.22
2017-04-08T02:06:35.049Z,22.23
2017-04-08T02:06:54.346Z,22.26
2017-04-08T02:07:13.683Z,22.22
2017-04-08T02:07:32.469Z,22.22
2017-04-08T02:07:51.765Z,22.24
2017-04-08T02:08:11.058Z,22.23
2017-04-08T02:08:29.846Z,22.22
2017-04-08T02:08:48.638Z,22.23
2017-04-08T02:09:07.928Z,22.24
2017-04-08T02:09:27.215Z,22.19
2017-04-08T02:09:44.964Z,22.24
2017-04-08T02:10:04.232Z,22.17
2017-04-08T02:10:23.545Z,22.2
2017-04-08T02:10:42.893Z,22.28
2017-04-08T02:11:02.190Z,22.2
2017-04-08T02:11:21.714Z,22.23
2017-04-08T02:11:40.496Z,22.24
2017-04-08T02:11:59.281Z,22.19
2017-04-08T02:12:18.061Z,22.23
2017-04-08T02:12:36.357Z,22.31
2017-04-08T02:12:55.611Z,22.32
2017-04-08T02:13:14.901Z,22.26
2017-04-08T02:13:34.169Z,22.31
2017-04-08T02:13:53.469Z,22.3
2017-04-08T02:14:12.760Z,22.39
2017-04-08T02:14:32.081Z,22.42
2017-04-08T02:14:50.879Z,22.35
2017-04-08T02:15:10.196Z,22.34
2017-04-08T02:15:28.976Z,22.38
2017-04-08T02:15:48.261Z,22.35
2017-04-08T02:16:07.606Z,22.37
2017-04-08T02:16:26.884Z,22.42
2017-04-08T02:16:46.190Z,22.41
2017-04-08T02:17:05.503Z,22.5
2017-04-08T02:17:24.809Z,22.44
2017-04-08T02:17:44.118Z,22.47
2017-04-08T02:18:03.437Z,22.46
2017-04-08T02:18:22.711Z,22.39
2017-04-08T02:18:42.045Z,22.39
2017-04-08T02:19:01.314Z,22.46
2017-04-08T02:19:20.586Z,22.49
2017-04-08T02:19:39.940Z,22.49
2017-04-08T02:19:59.243Z,22.49
2017-04-08T02:20:18.529Z,22.54
2017-04-08T02:20:37.806Z,22.42
2017-04-08T02:20:57.170Z,22.59
2017-04-08T02:21:15.931Z,22.54
2017-04-08T02:21:35.277Z,22.57
2017-04-08T02:21:54.570Z,22.59
2017-04-08T02:22:13.351Z,22.57
2017-04-08T02:22:32.659Z,22.62
2017-04-08T02:22:51.440Z,22.56
2017-04-08T02:23:10.784Z,22.63
2017-04-08T02:23:30.111Z,22.56
2017-04-08T02:23:49.400Z,22.57
2017-04-08T02:24:08.745Z,22.59
2017-04-08T02:24:28.040Z,22.59
2017-04-08T02:24:47.328Z,22.52
2017-04-08T02:25:06.650Z,22.59
2017-04-08T02:25:25.924Z,22.41
2017-04-08T02:25:45.206Z,22.59
2017-04-08T02:26:04.452Z,22.53
2017-04-08T02:26:23.712Z,22.54
2017-04-08T02:26:42.510Z,22.53
2017-04-08T02:27:01.813Z,22.52
2017-04-08T02:27:21.122Z,22.54
2017-04-08T02:27:40.395Z,22.56
2017-04-08T02:27:59.645Z,22.59
2017-04-08T02:28:18.954Z,22.59
2017-04-08T02:28:38.264Z,22.57
2017-04-08T02:28:57.043Z,22.62
2017-04-08T02:29:16.346Z,22.62
2017-04-08T02:29:35.660Z,22.59
2017-04-08T02:29:55.122Z,22.68
2017-04-08T02:30:14.431Z,22.59
2017-04-08T02:30:33.723Z,22.65
2017-04-08T02:30:53.022Z,22.65
2017-04-08T02:31:12.332Z,22.69
2017-04-08T02:31:31.150Z,22.63
2017-04-08T02:31:50.461Z,22.6
2017-04-08T02:32:08.711Z,22.57
2017-04-08T02:32:27.982Z,22.67
2017-04-08T02:32:47.276Z,22.68
2017-04-08T02:33:06.562Z,22.75
2017-04-08T02:33:25.342Z,22.71
2017-04-08T02:33:44.654Z,22.68
2017-04-08T02:34:03.939Z,22.67
2017-04-08T02:34:22.738Z,22.69
2017-04-08T02:34:42.017Z,22.74
2017-04-08T02:35:01.300Z,22.67
2017-04-08T02:35:20.579Z,22.68
2017-04-08T02:35:39.839Z,22.68
2017-04-08T02:35:59.135Z,22.71
2017-04-08T02:36:18.453Z,22.74
2017-04-08T02:36:37.767Z,22.74
2017-04-08T02:36:56.541Z,22.72
2017-04-08T02:37:15.815Z,22.75
2017-04-08T02:37:35.089Z,22.77
2017-04-08T02:37:53.859Z,22.74
2017-04-08T02:38:13.122Z,22.74
2017-04-08T02:38:32.390Z,22.78
2017-04-08T02:38:51.690Z,22.78
2017-04-08T02:39:10.998Z,22.81
2017-04-08T02:39:30.275Z,22.89
2017-04-08T02:39:49.560Z,22.84
2017-04-08T02:40:08.849Z,22.86
2017-04-08T02:40:28.303Z,22.81
2017-04-08T02:40:47.589Z,22.78
2017-04-08T02:41:06.890Z,22.79
2017-04-08T02:41:25.663Z,22.83
2017-04-08T02:41:44.971Z,22.87
2017-04-08T02:42:04.262Z,22.84
2017-04-08T02:42:23.017Z,22.9
2017-04-08T02:42:42.316Z,22.87
2017-04-08T02:43:01.618Z,22.81
2017-04-08T02:43:20.881Z,22.92
2017-04-08T02:43:40.187Z,22.84
2017-04-08T02:43:59.515Z,22.87
2017-04-08T02:44:18.763Z,22.9
2017-04-08T02:44:38.059Z,22.9
2017-04-08T02:44:57.369Z,22.93
2017-04-08T02:45:16.657Z,22.89
2017-04-08T02:45:35.959Z,22.83
2017-04-08T02:45:54.744Z,22.93
2017-04-08T02:46:13.509Z,22.86
2017-04-08T02:46:32.822Z,22.89
2017-04-08T02:46:51.615Z,22.9
2017-04-08T02:47:10.925Z,22.84
2017-04-08T02:47:29.708Z,22.9
2017-04-08T02:47:48.981Z,22.93
2017-04-08T02:48:08.262Z,22.9
2017-04-08T02:48:27.522Z,22.97
2017-04-08T02:48:46.805Z,22.99
2017-04-08T02:49:06.095Z,22.96
2017-04-08T02:49:25.367Z,22.97
2017-04-08T02:49:44.630Z,22.92
2017-04-08T02:50:03.898Z,22.89
2017-04-08T02:50:23.183Z,22.9
2017-04-08T02:50:42.459Z,22.78
2017-04-08T02:51:01.743Z,22.84
2017-04-08T02:51:20.595Z,22.84
2017-04-08T02:51:39.876Z,22.84
2017-04-08T02:51:58.650Z,22.84
2017-04-08T02:52:17.940Z,22.93
2017-04-08T02:52:36.713Z,22.87
2017-04-08T02:52:56.028Z,22.93
2017-04-08T02:53:15.307Z,22.96
2017-04-08T02:53:34.579Z,22.86
2017-04-08T02:53:53.893Z,22.84
2017-04-08T02:54:13.196Z,22.93
2017-04-08T02:54:32.472Z,22.92
2017-04-08T02:54:51.780Z,22.92
2017-04-08T02:55:10.555Z,22.83
2017-04-08T02:55:29.836Z,22.86
2017-04-08T02:55:49.141Z,22.89
2017-04-08T02:56:08.475Z,22.89
2017-04-08T02:56:27.759Z,22.89
2017-04-08T02:56:46.550Z,22.92
2017-04-08T02:57:05.850Z,22.92
2017-04-08T02:57:25.127Z,22.87
2017-04-08T02:57:44.417Z,22.92
2017-04-08T02:58:03.740Z,22.84
2017-04-08T02:58:22.999Z,22.83
2017-04-08T02:58:42.235Z,22.93
2017-04-08T02:59:01.032Z,22.84
2017-04-08T02:59:20.315Z,22.75
2017-04-08T02:59:39.598Z,22.89
2017-04-08T02:59:58.862Z,22.89
2017-04-08T03:00:18.125Z,22.89
2017-04-08T03:00:37.404Z,22.93
2017-04-08T03:00:56.659Z,22.84
2017-04-08T03:01:16.277Z,22.87
2017-04-08T03:01:35.048Z,22.84
2017-04-08T03:01:54.338Z,22.93
2017-04-08T03:02:13.647Z,22.89
2017-04-08T03:02:32.937Z,22.89
2017-04-08T03:02:52.189Z,22.79
2017-04-08T03:03:11.491Z,22.79
2017-04-08T03:03:30.802Z,22.84
2017-04-08T03:03:50.090Z,22.89
2017-04-08T03:04:09.409Z,22.75
2017-04-08T03:04:28.683Z,22.71
2017-04-08T03:04:47.974Z,22.74
2017-04-08T03:05:07.294Z,22.77
2017-04-08T03:05:26.603Z,22.78
2017-04-08T03:05:45.884Z,22.75
2017-04-08T03:06:05.208Z,22.65
2017-04-08T03:06:24.492Z,22.77
2017-04-08T03:06:43.791Z,22.68
2017-04-08T03:07:03.098Z,22.77
2017-04-08T03:07:21.870Z,22.75
2017-04-08T03:07:41.150Z,22.79
2017-04-08T03:08:00.436Z,22.74
2017-04-08T03:08:19.727Z,22.74
2017-04-08T03:08:38.494Z,22.75
2017-04-08T03:08:57.806Z,22.75
2017-04-08T03:09:17.110Z,22.75
2017-04-08T03:09:36.375Z,22.75
2017-04-08T03:09:55.668Z,22.74
2017-04-08T03:10:14.960Z,22.78
2017-04-08T03:10:34.282Z,22.77
2017-04-08T03:10:53.577Z,22.74
2017-04-08T03:11:12.869Z,22.75
2017-04-08T03:11:32.207Z,22.79
2017-04-08T03:11:51.506Z,22.78
2017-04-08T03:12:10.809Z,22.74
2017-04-08T03:12:29.592Z,22.87
2017-04-08T03:12:48.888Z,22.81
2017-04-08T03:13:08.155Z,22.87
2017-04-08T03:13:26.923Z,22.84
2017-04-08T03:13:46.235Z,22.89
2017-04-08T03:14:05.521Z,22.9
2017-04-08T03:14:24.817Z,22.93
2017-04-08T03:14:44.103Z,22.83
2017-04-08T03:15:03.407Z,22.89
2017-04-08T03:15:22.200Z,22.89
2017-04-08T03:15:41.537Z,22.89
2017-04-08T03:16:00.820Z,22.89
2017-04-08T03:16:20.234Z,22.84
2017-04-08T03:16:39.533Z,22.87
2017-04-08T03:16:58.809Z,22.78
2017-04-08T03:17:18.119Z,22.77
2017-04-08T03:17:37.430Z,22.74
2017-04-08T03:17:56.719Z,22.75
2017-04-08T03:18:16.015Z,22.75
2017-04-08T03:18:35.332Z,22.78
2017-04-08T03:18:54.629Z,22.81
2017-04-08T03:19:13.928Z,22.81
2017-04-08T03:19:32.711Z,22.84
2017-04-08T03:19:51.509Z,22.75
2017-04-08T03:20:10.805Z,22.75
2017-04-08T03:20:29.574Z,22.83
2017-04-08T03:20:48.842Z,22.87
2017-04-08T03:21:08.123Z,22.72
2017-04-08T03:21:26.388Z,22.86
2017-04-08T03:21:45.644Z,22.84
2017-04-08T03:22:04.397Z,22.81
2017-04-08T03:22:23.196Z,22.87
2017-04-08T03:22:42.516Z,22.81
2017-04-08T03:23:01.800Z,22.92
2017-04-08T03:23:21.088Z,22.86
2017-04-08T03:23:39.850Z,22.84
2017-04-08T03:23:59.118Z,22.86
2017-04-08T03:24:18.431Z,22.84
2017-04-08T03:24:37.732Z,22.81
2017-04-08T03:24:56.534Z,22.87
2017-04-08T03:25:15.808Z,22.81
2017-04-08T03:25:35.078Z,22.87
2017-04-08T03:25:53.867Z,22.79
2017-04-08T03:26:13.271Z,22.89
2017-04-08T03:26:32.563Z,22.78
2017-04-08T03:26:51.831Z,22.78
2017-04-08T03:27:10.605Z,22.74
2017-04-08T03:27:29.936Z,22.69
2017-04-08T03:27:48.723Z,22.68
2017-04-08T03:28:08.029Z,22.71
2017-04-08T03:28:26.787Z,22.77
2017-04-08T03:28:46.117Z,22.78
2017-04-08T03:29:05.421Z,22.74
2017-04-08T03:29:24.191Z,22.84
2017-04-08T03:29:43.491Z,22.84
2017-04-08T03:30:02.801Z,22.74
2017-04-08T03:30:21.041Z,22.74
2017-04-08T03:30:40.318Z,22.77
2017-04-08T03:30:59.598Z,22.75
2017-04-08T03:31:18.866Z,22.69
2017-04-08T03:31:38.165Z,22.71
2017-04-08T03:31:56.953Z,22.81
2017-04-08T03:32:16.236Z,22.78
2017-04-08T03:32:35.555Z,22.75
2017-04-08T03:32:54.857Z,22.78
2017-04-08T03:33:13.623Z,22.81
2017-04-08T03:33:32.914Z,22.77
2017-04-08T03:33:52.251Z,22.81
2017-04-08T03:34:11.535Z,22.86
2017-04-08T03:34:30.832Z,22.83
2017-04-08T03:34:50.124Z,22.81
2017-04-08T03:35:09.399Z,22.74
2017-04-08T03:35:28.660Z,22.72
2017-04-08T03:35:47.958Z,22.74
2017-04-08T03:36:07.255Z,22.75
2017-04-08T03:36:26.524Z,22.74
2017-04-08T03:36:45.814Z,22.83
2017-04-08T03:37:05.124Z,22.9
2017-04-08T03:37:24.447Z,22.86
2017-04-08T03:37:43.745Z,22.84
2017-04-08T03:38:03.048Z,22.83
2017-04-08T03:38:21.847Z,22.89
2017-04-08T03:38:41.130Z,22.86
2017-04-08T03:39:00.437Z,22.83
2017-04-08T03:39:19.712Z,22.9
2017-04-08T03:39:39.039Z,22.92
2017-04-08T03:39:58.420Z,22.86
2017-04-08T03:40:17.787Z,22.84
2017-04-08T03:40:37.105Z,22.86
2017-04-08T03:40:57.142Z,22.87
2017-04-08T03:41:30.958Z,22.87
2017-04-08T03:42:04.891Z,22.84
2017-04-08T03:42:23.671Z,22.89
2017-04-08T03:42:42.987Z,22.81
2017-04-08T03:43:02.275Z,22.89
2017-04-08T03:43:21.571Z,22.83
2017-04-08T03:43:40.861Z,22.78
2017-04-08T03:44:00.127Z,22.81
2017-04-08T03:44:19.414Z,22.79
2017-04-08T03:44:38.695Z,22.86
2017-04-08T03:44:57.965Z,22.79
2017-04-08T03:45:17.283Z,22.87
2017-04-08T03:45:36.569Z,22.9
2017-04-08T03:45:55.865Z,22.97
2017-04-08T03:46:14.641Z,22.97
2017-04-08T03:46:33.943Z,22.97
2017-04-08T03:46:53.252Z,22.96
2017-04-08T03:47:12.508Z,23
2017-04-08T03:47:31.775Z,23
2017-04-08T03:47:50.526Z,22.97
2017-04-08T03:48:09.813Z,22.81
2017-04-08T03:48:29.123Z,23.02
2017-04-08T03:48:48.406Z,22.87
2017-04-08T03:49:07.692Z,22.9
2017-04-08T03:49:27.007Z,22.94
2017-04-08T03:49:46.256Z,22.96
2017-04-08T03:50:05.027Z,22.99
2017-04-08T03:50:24.346Z,22.93
2017-04-08T03:50:43.602Z,22.86
2017-04-08T03:51:02.894Z,22.87
2017-04-08T03:51:22.187Z,22.84
2017-04-08T03:51:40.953Z,22.84
2017-04-08T03:52:00.251Z,22.87
2017-04-08T03:52:18.999Z,22.93
2017-04-08T03:52:38.291Z,22.89
2017-04-08T03:52:57.608Z,23
2017-04-08T03:53:16.368Z,22.92
2017-04-08T03:53:35.682Z,22.9
2017-04-08T03:53:54.977Z,22.83
2017-04-08T03:54:14.292Z,22.89
2017-04-08T03:54:33.560Z,23
2017-04-08T03:54:52.873Z,22.86
2017-04-08T03:55:11.647Z,22.83
2017-04-08T03:55:30.952Z,22.81
2017-04-08T03:55:49.723Z,22.79
2017-04-08T03:56:08.489Z,22.78
2017-04-08T03:56:28.384Z,22.83
2017-04-08T03:56:47.760Z,22.9
2017-04-08T03:57:07.174Z,22.79
2017-04-08T03:57:27.168Z,22.74
2017-04-08T03:57:47.155Z,22.77
2017-04-08T03:58:07.160Z,22.75
2017-04-08T03:58:27.173Z,22.72
2017-04-08T03:58:47.200Z,22.74
2017-04-08T03:59:07.188Z,22.9
2017-04-08T03:59:27.186Z,22.72
2017-04-08T03:59:46.603Z,22.75
2017-04-08T04:00:06.594Z,22.75
2017-04-08T04:00:26.049Z,22.89
2017-04-08T04:00:59.884Z,22.78
2017-04-08T04:01:19.909Z,22.75
2017-04-08T04:01:39.948Z,22.74
2017-04-08T04:01:59.935Z,22.78
2017-04-08T04:02:18.808Z,22.75
2017-04-08T04:02:38.792Z,22.72
2017-04-08T04:02:58.811Z,22.75
2017-04-08T04:03:18.230Z,22.81
2017-04-08T04:03:38.236Z,22.83
2017-04-08T04:03:58.240Z,22.83
2017-04-08T04:04:18.257Z,22.84
2017-04-08T04:04:38.237Z,22.74
2017-04-08T04:04:57.678Z,22.77
2017-04-08T04:05:17.096Z,22.74
2017-04-08T04:05:36.492Z,22.74
2017-04-08T04:05:56.473Z,22.78
2017-04-08T04:06:17.018Z,22.79
2017-04-08T04:06:37.010Z,22.68
2017-04-08T04:06:56.991Z,22.68
2017-04-08T04:07:16.403Z,22.68
2017-04-08T04:07:36.350Z,22.71
2017-04-08T04:07:55.807Z,22.74
2017-04-08T04:08:15.269Z,22.68
2017-04-08T04:08:35.248Z,22.63
2017-04-08T04:08:55.209Z,22.69
2017-04-08T04:09:15.174Z,22.63
2017-04-08T04:09:35.179Z,22.72